createdAt,value
2024-02-28T00:02:04.077Z,101614.41
2024-02-28T00:04:30.779Z,101610.59
2024-02-28T00:06:57.562Z,101609.47
2024-02-28T00:09:24.280Z,101609.25
2024-02-28T00:11:50.995Z,101615.28
2024-02-28T00:14:17.718Z,101602.94
2024-02-28T00:16:45.845Z,101603.16
2024-02-28T00:19:13.718Z,101606.75
2024-02-28T00:21:41.759Z,101604.28
2024-02-28T00:24:08.916Z,101605.91
2024-02-28T00:26:35.730Z,101605.13
2024-02-28T00:29:02.757Z,101603.75
2024-02-28T00:31:29.949Z,101605.13
2024-02-28T00:33:56.718Z,101603.66
2024-02-28T00:36:23.540Z,101603.38
2024-02-28T00:38:50.384Z,101607.78
2024-02-28T00:41:17.088Z,101606.97
2024-02-28T00:43:43.744Z,101605.53
2024-02-28T00:46:13.658Z,101608.84
2024-02-28T00:48:41.160Z,101608.47
2024-02-28T00:51:09.665Z,101607.16
2024-02-28T00:53:36.555Z,101613.13
2024-02-28T00:56:04.439Z,101618.06
2024-02-28T00:58:31.491Z,101614.22
2024-02-28T01:00:58.818Z,101616.44
2024-02-28T01:03:25.898Z,101614.84
2024-02-28T01:05:52.750Z,101619.19
2024-02-28T01:08:19.529Z,101612.09
2024-02-28T01:10:47.044Z,101620.63
2024-02-28T01:13:13.851Z,101625.81
2024-02-28T01:15:43.677Z,101612.09
2024-02-28T01:18:11.707Z,101619.53
2024-02-28T01:20:38.802Z,101619.19
2024-02-28T01:23:05.765Z,101622.25
2024-02-28T01:25:32.548Z,101617.06
2024-02-28T01:27:59.581Z,101605.53
2024-02-28T01:30:26.616Z,101618.16
2024-02-28T01:32:53.517Z,101613.19
2024-02-28T01:35:20.231Z,101624.16
2024-02-28T01:37:46.925Z,101617.91
2024-02-28T01:40:14.171Z,101619.19
2024-02-28T01:42:41.022Z,101620.22
2024-02-28T01:45:10.467Z,101619.13
2024-02-28T01:47:38.318Z,101618.28
2024-02-28T01:50:05.976Z,101605.63
2024-02-28T01:52:33.130Z,101611.13
2024-02-28T01:55:00.301Z,101613.31
2024-02-28T01:57:28.529Z,101613.84
2024-02-28T01:59:57.102Z,101605.41
2024-02-28T02:02:23.807Z,101604.34
2024-02-28T02:04:50.759Z,101607.31
2024-02-28T02:07:17.532Z,101606.41
2024-02-28T02:09:44.280Z,101610.78
2024-02-28T02:12:11.192Z,101609.97
2024-02-28T02:14:37.926Z,101611.41
2024-02-28T02:17:04.664Z,101615.75
2024-02-28T02:19:31.527Z,101621.88
2024-02-28T02:21:59.889Z,101620.09
2024-02-28T02:24:26.707Z,101622.59
2024-02-28T02:26:59.919Z,101625.09
2024-02-28T02:29:26.746Z,101624.00
2024-02-28T02:31:53.390Z,101629.97
2024-02-28T02:34:20.204Z,101627.75
2024-02-28T02:36:46.875Z,101638.78
2024-02-28T02:39:13.643Z,101633.88
2024-02-28T02:41:41.734Z,101645.25
2024-02-28T02:44:11.266Z,101650.50
2024-02-28T02:46:37.921Z,101648.84
2024-02-28T02:49:04.551Z,101653.50
2024-02-28T02:51:31.434Z,101658.94
2024-02-28T02:53:58.112Z,101652.38
2024-02-28T02:56:25.776Z,101655.59
2024-02-28T02:58:52.489Z,101655.94
2024-02-28T03:01:21.380Z,101648.34
2024-02-28T03:03:48.332Z,101654.84
2024-02-28T03:06:15.147Z,101658.97
2024-02-28T03:08:41.818Z,101657.59
2024-02-28T03:11:10.001Z,101654.53
2024-02-28T03:13:36.753Z,101650.75
2024-02-28T03:16:05.540Z,101651.38
2024-02-28T03:18:32.274Z,101660.63
2024-02-28T03:20:58.996Z,101651.88
2024-02-28T03:23:25.699Z,101652.44
2024-02-28T03:25:52.474Z,101655.16
2024-02-28T03:28:19.160Z,101647.81
2024-02-28T03:30:45.880Z,101659.06
2024-02-28T03:33:12.675Z,101657.91
2024-02-28T03:35:39.493Z,101659.81
2024-02-28T03:38:06.127Z,101657.13
2024-02-28T03:40:33.179Z,101654.03
2024-02-28T03:43:00.602Z,101652.44
2024-02-28T03:45:30.806Z,101654.66
2024-02-28T03:47:57.643Z,101652.50
2024-02-28T03:50:24.350Z,101659.09
2024-02-28T03:52:51.091Z,101663.13
2024-02-28T03:55:17.931Z,101672.31
2024-02-28T03:57:48.642Z,101668.53
2024-02-28T04:00:15.978Z,101668.53
2024-02-28T04:02:42.720Z,101660.22
2024-02-28T04:05:09.552Z,101654.75
2024-02-28T04:07:36.225Z,101663.28
2024-02-28T04:10:03.029Z,101673.31
2024-02-28T04:12:30.849Z,101682.31
2024-02-28T04:14:57.602Z,101668.41
2024-02-28T04:17:24.282Z,101674.34
2024-02-28T04:19:50.930Z,101673.25
2024-02-28T04:22:17.557Z,101679.94
2024-02-28T04:24:44.594Z,101676.25
2024-02-28T04:27:12.794Z,101681.00
2024-02-28T04:29:39.749Z,101683.19
2024-02-28T04:32:06.513Z,101684.03
2024-02-28T04:34:33.178Z,101680.13
2024-02-28T04:36:59.976Z,101678.78
2024-02-28T04:39:26.817Z,101693.00
2024-02-28T04:41:53.535Z,101692.97
2024-02-28T04:44:20.187Z,101685.81
2024-02-28T04:46:46.898Z,101702.81
2024-02-28T04:49:13.772Z,101705.00
2024-02-28T04:51:40.682Z,101709.31
2024-02-28T04:54:07.386Z,101706.84
2024-02-28T04:56:34.024Z,101695.31
2024-02-28T04:59:00.748Z,101702.69
2024-02-28T05:01:29.559Z,101708.50
2024-02-28T05:03:56.597Z,101720.22
2024-02-28T05:06:23.423Z,101718.06
2024-02-28T05:08:50.125Z,101735.88
2024-02-28T05:11:16.830Z,101727.97
2024-02-28T05:13:44.004Z,101735.56
2024-02-28T05:16:14.948Z,101739.41
2024-02-28T05:18:41.909Z,101740.91
2024-02-28T05:21:08.733Z,101739.56
2024-02-28T05:23:35.380Z,101744.25
2024-02-28T05:26:05.176Z,101742.56
2024-02-28T05:28:32.617Z,101735.75
2024-02-28T05:30:59.425Z,101748.88
2024-02-28T05:33:26.162Z,101747.50
2024-02-28T05:35:52.828Z,101750.72
2024-02-28T05:38:19.495Z,101755.38
2024-02-28T05:40:46.207Z,101743.94
2024-02-28T05:43:13.001Z,101744.91
2024-02-28T05:45:39.777Z,101747.31
2024-02-28T05:48:06.882Z,101753.22
2024-02-28T05:50:34.218Z,101756.84
2024-02-28T05:53:00.904Z,101763.41
2024-02-28T05:55:27.749Z,101761.19
2024-02-28T05:57:54.429Z,101763.94
2024-02-28T06:00:21.235Z,101772.16
2024-02-28T06:02:47.990Z,101775.69
2024-02-28T06:05:14.758Z,101787.41
2024-02-28T06:07:41.459Z,101791.47
2024-02-28T06:10:09.369Z,101800.00
2024-02-28T06:12:36.054Z,101802.31
2024-02-28T06:15:02.827Z,101799.03
2024-02-28T06:17:29.471Z,101800.41
2024-02-28T06:19:56.165Z,101809.47
2024-02-28T06:22:22.873Z,101809.72
2024-02-28T06:24:49.586Z,101816.13
2024-02-28T06:27:17.406Z,101813.22
2024-02-28T06:29:44.137Z,101811.63
2024-02-28T06:32:10.862Z,101818.75
2024-02-28T06:34:37.741Z,101821.91
2024-02-28T06:37:04.968Z,101819.84
2024-02-28T06:39:31.879Z,101823.94
2024-02-28T06:41:58.569Z,101822.59
2024-02-28T06:44:25.431Z,101826.31
2024-02-28T06:46:52.188Z,101821.72
2024-02-28T06:49:18.872Z,101828.88
2024-02-28T06:51:46.462Z,101835.19
2024-02-28T06:54:13.325Z,101823.91
2024-02-28T06:56:40.067Z,101833.88
2024-02-28T06:59:08.148Z,101837.03
2024-02-28T07:01:35.145Z,101843.34
2024-02-28T07:04:02.109Z,101849.25
2024-02-28T07:06:28.916Z,101853.81
2024-02-28T07:08:55.740Z,101848.00
2024-02-28T07:11:22.952Z,101850.81
2024-02-28T07:13:49.727Z,101846.50
2024-02-28T07:16:16.611Z,101849.66
2024-02-28T07:18:43.329Z,101850.31
2024-02-28T07:21:10.178Z,101853.06
2024-02-28T07:23:40.295Z,101851.81
2024-02-28T07:26:12.876Z,101849.66
2024-02-28T07:28:50.745Z,101844.69
2024-02-28T07:31:18.044Z,101843.53
2024-02-28T07:33:44.747Z,101845.44
2024-02-28T07:36:11.877Z,101837.38
2024-02-28T07:38:38.849Z,101846.69
2024-02-28T07:41:06.066Z,101843.53
2024-02-28T07:43:38.016Z,101856.03
2024-02-28T07:46:12.553Z,101849.50
2024-02-28T07:48:39.927Z,101857.81
2024-02-28T07:51:07.850Z,101867.59
2024-02-28T07:53:34.774Z,101880.22
2024-02-28T07:56:01.506Z,101879.63
2024-02-28T07:58:28.257Z,101878.59
2024-02-28T08:00:54.990Z,101892.47
2024-02-28T08:03:22.101Z,101895.13
2024-02-28T08:05:49.851Z,101888.91
2024-02-28T08:08:16.606Z,101896.97
2024-02-28T08:10:43.445Z,101890.97
2024-02-28T08:13:10.215Z,101893.22
2024-02-28T08:15:36.962Z,101894.63
2024-02-28T08:18:03.913Z,101899.84
2024-02-28T08:20:30.618Z,101906.00
2024-02-28T08:22:59.553Z,101901.63
2024-02-28T08:25:26.224Z,101910.91
2024-02-28T08:27:52.991Z,101916.13
2024-02-28T08:30:19.806Z,101915.31
2024-02-28T08:32:46.589Z,101924.16
2024-02-28T08:35:13.349Z,101924.81
2024-02-28T08:37:40.720Z,101926.25
2024-02-28T08:40:08.486Z,101929.22
2024-02-28T08:42:35.394Z,101922.00
2024-02-28T08:45:02.251Z,101924.88
2024-02-28T08:47:28.995Z,101930.88
2024-02-28T08:49:55.817Z,101931.94
2024-02-28T08:52:22.956Z,101925.81
2024-02-28T08:54:50.148Z,101933.97
2024-02-28T08:57:17.126Z,101924.00
2024-02-28T08:59:44.191Z,101923.34
2024-02-28T09:02:12.470Z,101911.56
2024-02-28T09:04:39.425Z,101910.97
2024-02-28T09:07:06.180Z,101910.56
2024-02-28T09:09:35.404Z,101913.56
2024-02-28T09:12:04.548Z,101920.94
2024-02-28T09:14:31.534Z,101910.91
2024-02-28T09:17:04.537Z,101905.81
2024-02-28T09:19:34.431Z,101913.22
2024-02-28T09:22:01.196Z,101907.75
2024-02-28T09:24:28.084Z,101910.50
2024-02-28T09:26:56.220Z,101904.59
2024-02-28T09:29:22.890Z,101913.56
2024-02-28T09:31:49.569Z,101914.31
2024-02-28T09:34:16.333Z,101925.75
2024-02-28T09:36:46.431Z,101920.44
2024-02-28T09:39:17.139Z,101924.91
2024-02-28T09:41:43.972Z,101926.09
2024-02-28T09:44:11.703Z,101928.16
2024-02-28T09:46:38.957Z,101934.13
2024-02-28T09:49:06.619Z,101928.63
2024-02-28T09:51:38.773Z,101927.16
2024-02-28T09:54:06.151Z,101923.81
2024-02-28T09:56:34.328Z,101928.31
2024-02-28T09:59:04.200Z,101934.78
2024-02-28T10:01:31.983Z,101944.34
2024-02-28T10:04:01.989Z,101938.09
2024-02-28T10:06:28.874Z,101940.06
2024-02-28T10:08:55.625Z,101940.22
2024-02-28T10:11:23.374Z,101950.34
2024-02-28T10:13:50.957Z,101942.72
2024-02-28T10:16:17.843Z,101948.94
2024-02-28T10:18:45.297Z,101952.38
2024-02-28T10:21:19.090Z,101953.94
2024-02-28T10:23:46.468Z,101953.03
2024-02-28T10:26:13.962Z,101952.28
2024-02-28T10:28:41.964Z,101959.72
2024-02-28T10:31:09.172Z,101959.41
2024-02-28T10:33:37.561Z,101955.09
2024-02-28T10:36:05.853Z,101966.78
2024-02-28T10:38:39.471Z,101976.78
2024-02-28T10:41:09.089Z,101971.66
2024-02-28T10:43:37.451Z,101976.63
2024-02-28T10:46:25.440Z,101977.13
2024-02-28T10:48:53.963Z,101968.22
2024-02-28T10:51:25.789Z,101976.31
2024-02-28T10:54:10.957Z,101979.06
2024-02-28T10:56:38.013Z,101974.75
2024-02-28T10:59:08.612Z,101980.69
2024-02-28T11:01:38.176Z,101973.69
2024-02-28T11:04:06.618Z,101978.41
2024-02-28T11:06:33.467Z,101986.72
2024-02-28T11:09:01.975Z,101987.38
2024-02-28T11:11:33.676Z,101980.03
2024-02-28T11:14:03.470Z,101989.53
2024-02-28T11:16:32.243Z,101982.03
2024-02-28T11:19:00.403Z,101980.13
2024-02-28T11:21:28.762Z,101981.22
2024-02-28T11:24:00.308Z,101986.50
2024-02-28T11:26:28.831Z,101989.91
2024-02-28T11:28:59.033Z,101988.88
2024-02-28T11:31:25.890Z,101980.38
2024-02-28T11:33:52.568Z,101985.03
2024-02-28T11:36:20.800Z,101981.47
2024-02-28T11:38:47.736Z,101986.81
2024-02-28T11:41:14.463Z,101994.31
2024-02-28T11:43:50.740Z,101989.78
2024-02-28T11:46:19.704Z,101992.81
2024-02-28T11:48:48.335Z,101991.47
2024-02-28T11:51:15.128Z,102004.53
2024-02-28T11:53:42.009Z,102006.72
2024-02-28T11:56:09.594Z,102001.09
2024-02-28T11:58:36.354Z,102006.63
2024-02-28T12:01:03.208Z,102007.22
2024-02-28T12:03:30.001Z,102009.47
2024-02-28T12:05:57.552Z,101996.13
2024-02-28T12:08:26.669Z,101998.09
2024-02-28T12:10:54.904Z,101992.78
2024-02-28T12:13:23.978Z,102003.66
2024-02-28T12:15:50.656Z,102005.69
2024-02-28T12:18:17.456Z,102010.47
2024-02-28T12:20:44.257Z,102001.66
2024-02-28T12:23:11.077Z,101994.22
2024-02-28T12:25:38.907Z,101992.31
2024-02-28T12:28:07.902Z,101995.81
2024-02-28T12:30:42.519Z,101992.06
2024-02-28T12:33:10.135Z,101998.00
2024-02-28T12:35:36.942Z,101986.25
2024-02-28T12:38:03.982Z,101993.66
2024-02-28T12:40:30.668Z,101994.66
2024-02-28T12:42:57.887Z,101998.38
2024-02-28T12:45:24.701Z,101992.16
2024-02-28T12:47:51.531Z,101997.22
2024-02-28T12:50:18.194Z,101994.28
2024-02-28T12:52:44.831Z,101990.88
2024-02-28T12:55:11.833Z,101986.31
2024-02-28T12:57:41.387Z,101994.28
2024-02-28T13:00:09.403Z,101992.59
2024-02-28T13:02:36.111Z,101987.63
2024-02-28T13:05:02.821Z,101995.16
2024-02-28T13:07:31.159Z,101993.66
2024-02-28T13:09:57.849Z,102001.88
2024-02-28T13:12:24.678Z,101992.19
2024-02-28T13:14:51.375Z,101992.91
2024-02-28T13:17:18.708Z,101993.78
2024-02-28T13:19:45.405Z,101984.63
2024-02-28T13:22:12.175Z,101995.97
2024-02-28T13:24:38.943Z,101986.97
2024-02-28T13:27:05.690Z,101988.44
2024-02-28T13:29:33.317Z,101985.59
2024-02-28T13:32:00.147Z,101975.59
2024-02-28T13:34:26.887Z,101981.38
2024-02-28T13:36:53.645Z,101978.47
2024-02-28T13:39:20.395Z,101980.88
2024-02-28T13:41:51.605Z,101977.34
2024-02-28T13:44:20.083Z,101964.97
2024-02-28T13:46:47.231Z,101972.44
2024-02-28T13:49:15.574Z,101965.19
2024-02-28T13:51:43.313Z,101976.09
2024-02-28T13:54:10.243Z,101963.50
2024-02-28T13:56:37.082Z,101962.63
2024-02-28T13:59:03.759Z,101965.53
2024-02-28T14:01:30.570Z,101961.97
2024-02-28T14:03:57.317Z,101970.03
2024-02-28T14:06:24.107Z,101960.44
2024-02-28T14:08:53.253Z,101956.66
2024-02-28T14:11:20.520Z,101961.94
2024-02-28T14:13:47.413Z,101964.25
2024-02-28T14:16:14.149Z,101972.53
2024-02-28T14:18:40.951Z,101966.16
2024-02-28T14:21:08.668Z,101962.41
2024-02-28T14:23:35.553Z,101962.88
2024-02-28T14:26:03.502Z,101959.59
2024-02-28T14:28:30.139Z,101958.47
2024-02-28T14:30:56.942Z,101963.16
2024-02-28T14:33:23.973Z,101955.31
2024-02-28T14:35:50.755Z,101956.91
2024-02-28T14:38:17.427Z,101964.31
2024-02-28T14:40:44.191Z,101960.75
2024-02-28T14:43:11.199Z,101966.25
2024-02-28T14:45:40.676Z,101967.34
2024-02-28T14:48:08.657Z,101966.00
2024-02-28T14:50:35.592Z,101962.94
2024-02-28T14:53:02.306Z,101964.31
2024-02-28T14:55:29.058Z,101965.63
2024-02-28T14:57:55.833Z,101970.03
2024-02-28T15:00:22.740Z,101970.03
2024-02-28T15:02:49.576Z,101974.00
2024-02-28T15:05:16.401Z,101973.69
2024-02-28T15:07:43.117Z,101969.09
2024-02-28T15:10:10.333Z,101979.47
2024-02-28T15:12:38.517Z,101976.06
2024-02-28T15:15:05.814Z,101974.00
2024-02-28T15:17:33.462Z,101975.63
2024-02-28T15:20:00.953Z,101977.03
2024-02-28T15:22:28.107Z,101971.44
2024-02-28T15:24:54.826Z,101971.94
2024-02-28T15:27:22.456Z,101968.69
2024-02-28T15:29:49.335Z,101974.13
2024-02-28T15:32:16.249Z,101971.94
2024-02-28T15:34:42.941Z,101971.84
2024-02-28T15:37:10.515Z,101972.06
2024-02-28T15:39:37.701Z,101972.53
2024-02-28T15:42:04.746Z,101981.72
2024-02-28T15:44:31.531Z,101971.47
2024-02-28T15:46:58.343Z,101971.19
2024-02-28T15:49:33.160Z,101967.31
2024-02-28T15:52:07.375Z,101967.53
2024-02-28T15:54:34.200Z,101968.78
2024-02-28T15:57:01.759Z,101969.56
2024-02-28T15:59:28.514Z,101970.81
2024-02-28T16:01:55.482Z,101967.75
2024-02-28T16:04:22.210Z,101967.44
2024-02-28T16:06:48.969Z,101965.72
2024-02-28T16:09:16.107Z,101966.22
2024-02-28T16:11:46.876Z,101969.16
2024-02-28T16:14:14.770Z,101967.69
2024-02-28T16:16:41.595Z,101974.50
2024-02-28T16:19:15.586Z,101968.94
2024-02-28T16:21:51.378Z,101970.47
2024-02-28T16:24:18.809Z,101966.47
2024-02-28T16:26:45.668Z,101978.94
2024-02-28T16:29:13.072Z,101973.06
2024-02-28T16:31:39.856Z,101975.97
2024-02-28T16:34:06.691Z,101983.78
2024-02-28T16:36:33.492Z,101985.84
2024-02-28T16:39:00.210Z,101991.47
2024-02-28T16:41:28.115Z,101991.53
2024-02-28T16:43:56.442Z,101991.84
2024-02-28T16:46:23.393Z,101990.59
2024-02-28T16:48:50.313Z,101991.47
2024-02-28T16:51:18.723Z,101999.50
2024-02-28T16:53:45.862Z,101999.03
2024-02-28T16:56:12.975Z,101997.53
2024-02-28T16:58:43.589Z,102007.53
2024-02-28T17:01:10.785Z,102012.06
2024-02-28T17:03:37.741Z,102011.13
2024-02-28T17:06:05.964Z,102007.22
2024-02-28T17:08:36.292Z,102018.63
2024-02-28T17:11:04.742Z,102014.47
2024-02-28T17:13:32.412Z,102012.72
2024-02-28T17:16:04.048Z,102012.59
2024-02-28T17:18:33.835Z,102015.81
2024-02-28T17:21:04.363Z,102015.44
2024-02-28T17:23:32.005Z,102022.38
2024-02-28T17:26:00.045Z,102023.06
2024-02-28T17:28:26.991Z,102010.13
2024-02-28T17:30:53.852Z,102016.78
2024-02-28T17:33:22.224Z,102022.38
2024-02-28T17:35:49.174Z,102020.81
2024-02-28T17:38:17.123Z,102025.94
2024-02-28T17:40:44.981Z,102030.66
2024-02-28T17:43:11.968Z,102032.69
2024-02-28T17:45:39.452Z,102033.50
2024-02-28T17:48:08.010Z,102035.63
2024-02-28T17:50:35.349Z,102034.09
2024-02-28T17:53:02.222Z,102032.66
2024-02-28T17:55:29.470Z,102027.28
2024-02-28T17:57:56.469Z,102027.41
2024-02-28T18:00:26.769Z,102028.34
2024-02-28T18:02:54.764Z,102032.00
2024-02-28T18:05:21.826Z,102023.47
2024-02-28T18:07:48.584Z,102026.66
2024-02-28T18:10:15.294Z,102028.19
2024-02-28T18:12:42.168Z,102032.81
2024-02-28T18:15:09.210Z,102028.88
2024-02-28T18:17:36.896Z,102031.22
2024-02-28T18:20:08.864Z,102036.00
2024-02-28T18:22:36.362Z,102043.13
2024-02-28T18:25:04.266Z,102033.72
2024-02-28T18:27:31.173Z,102039.66
2024-02-28T18:29:57.942Z,102043.06
2024-02-28T18:32:24.954Z,102045.44
2024-02-28T18:34:53.490Z,102036.66
2024-02-28T18:37:20.568Z,102036.19
2024-02-28T18:39:47.377Z,102030.25
2024-02-28T18:42:14.127Z,102035.63
2024-02-28T18:44:40.949Z,102031.84
2024-02-28T18:47:07.632Z,102026.22
2024-02-28T18:49:35.920Z,102031.31
2024-02-28T18:52:02.887Z,102036.66
2024-02-28T18:54:29.754Z,102031.63
2024-02-28T18:56:56.723Z,102028.47
2024-02-28T18:59:23.461Z,102033.69
2024-02-28T19:01:51.307Z,102027.16
2024-02-28T19:04:18.318Z,102038.19
2024-02-28T19:06:46.504Z,102034.69
2024-02-28T19:09:13.880Z,102038.47
2024-02-28T19:11:40.633Z,102036.59
2024-02-28T19:14:07.320Z,102034.31
2024-02-28T19:16:34.023Z,102041.44
2024-02-28T19:19:00.802Z,102041.09
2024-02-28T19:21:27.682Z,102035.25
2024-02-28T19:23:54.402Z,102023.13
2024-02-28T19:26:21.131Z,102033.22
2024-02-28T19:28:49.119Z,102030.72
2024-02-28T19:31:15.961Z,102028.22
2024-02-28T19:33:43.986Z,102028.22
2024-02-28T19:36:10.853Z,102036.19
2024-02-28T19:38:37.657Z,102037.72
2024-02-28T19:41:05.124Z,102041.66
2024-02-28T19:43:33.252Z,102047.19
2024-02-28T19:46:01.136Z,102047.25
2024-02-28T19:48:30.596Z,102054.25
2024-02-28T19:50:57.293Z,102045.53
2024-02-28T19:53:25.084Z,102052.75
2024-02-28T19:55:51.833Z,102043.19
2024-02-28T19:58:18.587Z,102040.94
2024-02-28T20:00:45.353Z,102042.81
2024-02-28T20:03:12.116Z,102040.34
2024-02-28T20:05:40.443Z,102044.88
2024-02-28T20:08:07.304Z,102041.09
2024-02-28T20:10:35.936Z,102045.91
2024-02-28T20:13:03.340Z,102055.84
2024-02-28T20:15:30.150Z,102049.06
2024-02-28T20:17:57.386Z,102049.13
2024-02-28T20:20:24.667Z,102051.69
2024-02-28T20:22:51.503Z,102051.69
2024-02-28T20:25:18.323Z,102048.75
2024-02-28T20:27:45.443Z,102044.94
2024-02-28T20:30:12.835Z,102039.88
2024-02-28T20:32:39.728Z,102043.81
2024-02-28T20:35:07.885Z,102044.66
2024-02-28T20:37:34.642Z,102051.31
2024-02-28T20:40:01.678Z,102047.75
2024-02-28T20:42:28.611Z,102055.94
2024-02-28T20:44:55.286Z,102047.75
2024-02-28T20:47:21.970Z,102040.19
2024-02-28T20:49:48.678Z,102046.25
2024-02-28T20:52:15.408Z,102050.78
2024-02-28T20:54:42.248Z,102044.88
2024-02-28T20:57:13.032Z,102041.75
2024-02-28T20:59:44.969Z,102044.50
2024-02-28T21:02:12.802Z,102034.03
2024-02-28T21:04:42.408Z,102037.00
2024-02-28T21:07:09.811Z,102034.13
2024-02-28T21:09:37.186Z,102040.63
2024-02-28T21:12:05.098Z,102040.03
2024-02-28T21:14:32.453Z,102029.34
2024-02-28T21:16:59.304Z,102033.97
2024-02-28T21:19:26.782Z,102027.91
2024-02-28T21:21:53.573Z,102032.78
2024-02-28T21:24:20.449Z,102025.03
2024-02-28T21:26:47.380Z,102029.88
2024-02-28T21:29:14.083Z,102029.88
2024-02-28T21:31:40.974Z,102028.22
2024-02-28T21:34:08.707Z,102028.22
2024-02-28T21:36:35.942Z,102028.22
2024-02-28T21:39:03.208Z,102020.03
2024-02-28T21:41:29.906Z,102016.09
2024-02-28T21:43:59.752Z,102022.69
2024-02-28T21:46:26.583Z,102020.66
2024-02-28T21:48:59.250Z,102009.97
2024-02-28T21:51:33.025Z,102016.84
2024-02-28T21:54:00.132Z,102015.66
2024-02-28T21:56:26.938Z,102015.28
2024-02-28T21:58:53.659Z,102015.50
2024-02-28T22:01:20.604Z,102018.81
2024-02-28T22:03:48.404Z,102012.78
2024-02-28T22:06:15.460Z,102012.78
2024-02-28T22:08:42.184Z,102013.22
2024-02-28T22:11:09.392Z,102007.41
2024-02-28T22:13:36.603Z,102004.09
2024-02-28T22:16:04.010Z,102007.84
2024-02-28T22:18:31.311Z,102006.44
2024-02-28T22:20:58.252Z,102009.38
2024-02-28T22:23:25.064Z,102001.78
2024-02-28T22:25:51.770Z,102008.25
2024-02-28T22:28:18.413Z,102009.38
2024-02-28T22:30:45.150Z,102012.47
2024-02-28T22:33:11.893Z,102000.53
2024-02-28T22:35:40.928Z,101994.91
2024-02-28T22:38:08.174Z,101999.13
2024-02-28T22:40:35.561Z,102005.03
2024-02-28T22:43:02.555Z,102000.50
2024-02-28T22:45:29.793Z,102000.94
2024-02-28T22:47:56.758Z,101998.91
2024-02-28T22:50:23.607Z,101988.91
2024-02-28T22:52:50.469Z,101996.69
2024-02-28T22:55:21.011Z,101992.75
2024-02-28T22:57:48.398Z,101994.03
2024-02-28T23:00:36.149Z,101993.19
2024-02-28T23:03:05.414Z,101992.81
2024-02-28T23:05:32.766Z,101994.56
2024-02-28T23:08:00.591Z,102004.22
2024-02-28T23:10:27.951Z,102005.50
2024-02-28T23:12:56.209Z,102005.72
2024-02-28T23:15:23.852Z,102004.28
2024-02-28T23:17:55.557Z,101998.84
2024-02-28T23:20:25.071Z,102004.09
2024-02-28T23:22:55.641Z,101988.00
2024-02-28T23:25:23.279Z,101997.22
2024-02-28T23:27:52.017Z,101998.66
2024-02-28T23:30:19.145Z,101993.25
2024-02-28T23:32:46.320Z,101985.53
2024-02-28T23:35:13.918Z,101982.03
2024-02-28T23:37:41.812Z,101973.44
2024-02-28T23:40:09.698Z,101983.72
2024-02-28T23:42:36.878Z,101984.31
2024-02-28T23:45:03.912Z,101984.31
2024-02-28T23:47:30.588Z,101976.81
2024-02-28T23:49:57.364Z,101983.09
2024-02-28T23:52:24.062Z,101980.81
2024-02-28T23:54:50.956Z,101974.78
2024-02-28T23:57:17.662Z,101973.50
2024-02-28T23:59:44.525Z,101966.63
